createdAt,value
2022-07-26T00:00:12.732Z,91.20
2022-07-26T00:02:39.650Z,91.40
2022-07-26T00:05:14.780Z,91.50
2022-07-26T00:07:41.685Z,91.70
2022-07-26T00:10:08.473Z,91.90
2022-07-26T00:12:35.346Z,92.00
2022-07-26T00:15:02.136Z,92.20
2022-07-26T00:17:28.993Z,92.30
2022-07-26T00:19:55.793Z,92.50
2022-07-26T00:22:34.757Z,92.60
2022-07-26T00:25:01.933Z,92.70
2022-07-26T00:27:28.783Z,92.90
2022-07-26T00:29:55.596Z,92.90
2022-07-26T00:32:22.419Z,92.90
2022-07-26T00:34:49.241Z,93.10
2022-07-26T00:37:20.094Z,93.10
2022-07-26T00:39:47.604Z,93.20
2022-07-26T00:42:14.424Z,93.20
2022-07-26T00:44:43.681Z,93.10
2022-07-26T00:47:12.019Z,93.10
2022-07-26T00:49:38.846Z,93.20
2022-07-26T00:52:05.608Z,93.30
2022-07-26T00:54:32.429Z,93.30
2022-07-26T00:56:59.229Z,93.20
2022-07-26T00:59:26.014Z,93.30
2022-07-26T01:01:53.106Z,93.30
2022-07-26T01:04:19.954Z,93.40
2022-07-26T01:06:46.918Z,93.50
2022-07-26T01:09:18.623Z,93.60
2022-07-26T01:11:46.030Z,93.70
2022-07-26T01:14:12.856Z,93.90
2022-07-26T01:16:39.782Z,94.00
2022-07-26T01:19:06.683Z,94.10
2022-07-26T01:21:33.505Z,94.20
2022-07-26T01:24:00.367Z,94.30
2022-07-26T01:26:27.264Z,94.30
2022-07-26T01:28:54.127Z,94.40
2022-07-26T01:31:21.085Z,94.40
2022-07-26T01:33:47.911Z,94.50
2022-07-26T01:36:14.730Z,94.60
2022-07-26T01:38:41.917Z,94.80
2022-07-26T01:41:08.718Z,95.00
2022-07-26T01:43:35.537Z,95.20
2022-07-26T01:46:02.404Z,95.40
2022-07-26T01:48:29.261Z,95.60
2022-07-26T01:50:57.237Z,95.70
2022-07-26T01:53:24.098Z,95.90
2022-07-26T01:55:50.890Z,96.20
2022-07-26T01:58:17.713Z,96.40
2022-07-26T02:00:44.748Z,96.50
2022-07-26T02:03:11.601Z,96.60
2022-07-26T02:05:38.482Z,96.90
2022-07-26T02:08:05.463Z,97.00
2022-07-26T02:10:51.072Z,97.10
2022-07-26T02:13:18.017Z,97.20
2022-07-26T02:15:44.830Z,97.30
2022-07-26T02:18:11.779Z,97.50
2022-07-26T02:20:38.677Z,97.60
2022-07-26T02:23:05.461Z,97.70
2022-07-26T02:25:32.370Z,97.80
2022-07-26T02:27:59.325Z,97.80
2022-07-26T02:30:26.137Z,98.00
2022-07-26T02:32:52.920Z,98.20
2022-07-26T02:35:20.258Z,98.20
2022-07-26T02:37:47.126Z,98.40
2022-07-26T02:40:18.856Z,98.60
2022-07-26T02:42:46.338Z,98.70
2022-07-26T02:45:13.142Z,98.90
2022-07-26T02:47:39.990Z,99.10
2022-07-26T02:50:06.862Z,99.20
2022-07-26T02:52:33.694Z,99.30
2022-07-26T02:55:00.465Z,99.40
2022-07-26T02:57:27.290Z,99.40
2022-07-26T02:59:54.079Z,99.60
2022-07-26T03:02:20.934Z,99.60
2022-07-26T03:04:47.789Z,99.80
2022-07-26T03:07:14.545Z,99.90
2022-07-26T03:09:41.451Z,99.70
2022-07-26T03:12:08.402Z,99.80
2022-07-26T03:14:35.237Z,99.90
2022-07-26T03:17:02.235Z,99.90
2022-07-26T03:19:29.119Z,99.90
2022-07-26T03:21:55.909Z,99.90
2022-07-26T03:24:22.854Z,99.90
2022-07-26T03:26:51.168Z,99.90
2022-07-26T03:29:18.014Z,99.90
2022-07-26T03:31:44.894Z,99.90
2022-07-26T03:34:11.856Z,99.90
2022-07-26T03:36:38.661Z,99.90
2022-07-26T03:39:05.490Z,99.90
2022-07-26T03:41:32.404Z,99.90
2022-07-26T03:43:59.193Z,99.90
2022-07-26T03:46:26.072Z,99.90
2022-07-26T03:48:53.073Z,99.90
2022-07-26T03:51:19.942Z,99.90
2022-07-26T03:53:46.724Z,99.90
2022-07-26T03:56:28.856Z,99.90
2022-07-26T03:58:55.663Z,99.90
2022-07-26T04:01:22.511Z,99.90
2022-07-26T04:03:49.419Z,99.90
2022-07-26T04:06:17.179Z,99.90
2022-07-26T04:08:44.450Z,99.90
2022-07-26T04:11:11.308Z,99.90
2022-07-26T04:13:38.125Z,99.90
2022-07-26T04:16:04.886Z,99.90
2022-07-26T04:18:31.700Z,99.90
2022-07-26T04:20:58.466Z,99.90
2022-07-26T04:23:25.270Z,99.90
2022-07-26T04:25:52.133Z,99.90
2022-07-26T04:28:18.913Z,99.90
2022-07-26T04:30:45.767Z,99.90
2022-07-26T04:33:12.800Z,99.90
2022-07-26T04:35:39.620Z,99.90
2022-07-26T04:38:06.530Z,99.90
2022-07-26T04:40:40.650Z,99.90
2022-07-26T04:43:09.112Z,99.90
2022-07-26T04:45:37.067Z,99.90
2022-07-26T04:48:04.173Z,99.90
2022-07-26T04:50:31.189Z,99.90
2022-07-26T04:52:58.019Z,99.90
2022-07-26T04:55:24.982Z,99.90
2022-07-26T04:57:51.821Z,99.90
2022-07-26T05:00:23.431Z,99.90
2022-07-26T05:02:50.910Z,99.90
2022-07-26T05:05:17.887Z,99.90
2022-07-26T05:07:44.723Z,99.90
2022-07-26T05:10:11.644Z,99.90
2022-07-26T05:12:38.420Z,99.90
2022-07-26T05:15:05.403Z,99.90
2022-07-26T05:17:40.665Z,99.90
2022-07-26T05:20:07.582Z,99.90
2022-07-26T05:22:34.398Z,99.90
2022-07-26T05:25:01.257Z,99.90
2022-07-26T05:27:28.214Z,99.90
2022-07-26T05:29:55.974Z,99.90
2022-07-26T05:32:23.044Z,99.90
2022-07-26T05:34:49.892Z,99.90
2022-07-26T05:37:16.723Z,99.90
2022-07-26T05:39:43.653Z,99.90
2022-07-26T05:42:10.541Z,99.90
2022-07-26T05:44:42.687Z,99.90
2022-07-26T05:47:09.799Z,99.90
2022-07-26T05:49:40.223Z,99.90
2022-07-26T05:52:07.616Z,99.90
2022-07-26T05:54:34.509Z,99.90
2022-07-26T05:57:01.339Z,99.90
2022-07-26T05:59:28.107Z,99.90
2022-07-26T06:01:58.283Z,99.90
2022-07-26T06:04:26.608Z,99.90
2022-07-26T06:06:54.881Z,99.90
2022-07-26T06:09:21.943Z,99.90
2022-07-26T06:11:48.744Z,99.90
2022-07-26T06:14:15.602Z,99.90
2022-07-26T06:16:46.686Z,99.90
2022-07-26T06:19:13.719Z,99.90
2022-07-26T06:21:40.572Z,99.90
2022-07-26T06:24:07.713Z,99.90
2022-07-26T06:26:34.911Z,99.90
2022-07-26T06:29:01.861Z,99.90
2022-07-26T06:31:28.832Z,99.90
2022-07-26T06:33:55.811Z,99.90
2022-07-26T06:36:26.104Z,99.90
2022-07-26T06:38:55.589Z,99.90
2022-07-26T06:41:23.223Z,99.90
2022-07-26T06:43:50.014Z,99.90
2022-07-26T06:46:17.262Z,99.90
2022-07-26T06:48:47.549Z,99.90
2022-07-26T06:51:19.967Z,99.90
2022-07-26T06:53:46.872Z,99.90
2022-07-26T06:56:15.154Z,99.90
2022-07-26T06:58:42.211Z,99.90
2022-07-26T07:01:13.187Z,99.90
2022-07-26T07:04:00.122Z,99.90
2022-07-26T07:06:26.908Z,99.90
2022-07-26T07:08:53.719Z,99.90
2022-07-26T07:11:20.628Z,99.90
2022-07-26T07:13:47.454Z,99.90
2022-07-26T07:16:14.409Z,99.90
2022-07-26T07:18:41.305Z,99.90
2022-07-26T07:21:08.250Z,99.90
2022-07-26T07:23:35.107Z,99.90
2022-07-26T07:26:02.234Z,99.90
2022-07-26T07:28:29.157Z,99.90
2022-07-26T07:30:56.046Z,99.90
2022-07-26T07:33:23.398Z,99.90
2022-07-26T07:35:53.931Z,99.90
2022-07-26T07:38:22.491Z,99.90
2022-07-26T07:40:49.752Z,99.90
2022-07-26T07:43:16.570Z,99.90
2022-07-26T07:45:43.978Z,99.90
2022-07-26T07:48:15.384Z,99.90
2022-07-26T07:50:42.182Z,99.90
2022-07-26T07:53:09.064Z,99.90
2022-07-26T07:55:40.550Z,99.90
2022-07-26T07:58:08.448Z,99.90
2022-07-26T08:00:35.362Z,99.90
2022-07-26T08:03:04.498Z,99.90
2022-07-26T08:05:31.354Z,99.90
2022-07-26T08:07:58.177Z,99.90
2022-07-26T08:10:25.011Z,99.90
2022-07-26T08:12:51.807Z,99.90
2022-07-26T08:15:19.382Z,99.90
2022-07-26T08:17:51.092Z,99.90
2022-07-26T08:20:20.918Z,99.90
2022-07-26T08:22:50.740Z,99.90
2022-07-26T08:25:17.609Z,99.90
2022-07-26T08:27:55.060Z,99.90
2022-07-26T08:30:29.849Z,99.90
2022-07-26T08:32:56.637Z,99.90
2022-07-26T08:35:23.442Z,99.90
2022-07-26T08:37:50.366Z,99.90
2022-07-26T08:40:17.348Z,99.90
2022-07-26T08:42:45.092Z,99.90
2022-07-26T08:45:13.443Z,99.90
2022-07-26T08:47:55.257Z,99.90
2022-07-26T08:50:27.269Z,99.90
2022-07-26T08:52:54.208Z,99.90
2022-07-26T08:55:20.972Z,99.90
2022-07-26T08:57:47.931Z,99.90
2022-07-26T09:00:14.738Z,99.90
2022-07-26T09:02:44.463Z,99.90
2022-07-26T09:05:11.953Z,99.90
2022-07-26T09:07:40.268Z,99.90
2022-07-26T09:10:07.148Z,99.90
2022-07-26T09:12:34.078Z,99.90
2022-07-26T09:15:00.842Z,99.90
2022-07-26T09:17:27.787Z,99.90
2022-07-26T09:19:54.603Z,99.90
2022-07-26T09:22:21.446Z,99.90
2022-07-26T09:24:48.288Z,99.90
2022-07-26T09:27:15.218Z,99.90
2022-07-26T09:29:42.186Z,99.90
2022-07-26T09:32:08.965Z,99.90
2022-07-26T09:34:35.970Z,99.90
2022-07-26T09:37:11.359Z,99.90
2022-07-26T09:39:39.287Z,99.90
2022-07-26T09:42:26.911Z,99.90
2022-07-26T09:44:53.041Z,99.90
2022-07-26T09:47:19.798Z,99.90
2022-07-26T09:49:46.608Z,99.90
2022-07-26T09:52:13.544Z,99.90
2022-07-26T09:54:41.594Z,99.90
2022-07-26T09:57:08.426Z,99.90
2022-07-26T09:59:35.258Z,99.90
2022-07-26T10:02:02.181Z,99.90
2022-07-26T10:04:29.038Z,99.90
2022-07-26T10:06:58.381Z,99.90
2022-07-26T10:09:25.603Z,99.90
2022-07-26T10:11:53.196Z,99.90
2022-07-26T10:14:20.125Z,99.90
2022-07-26T10:16:46.918Z,99.90
2022-07-26T10:19:14.422Z,99.90
2022-07-26T10:21:41.884Z,99.90
2022-07-26T10:24:10.524Z,99.70
2022-07-26T10:26:37.573Z,99.90
2022-07-26T10:29:04.447Z,99.60
2022-07-26T10:31:31.596Z,99.90
2022-07-26T10:33:58.510Z,99.90
2022-07-26T10:36:25.394Z,99.90
2022-07-26T10:38:54.484Z,99.90
2022-07-26T10:41:22.035Z,99.90
2022-07-26T10:43:48.929Z,99.90
2022-07-26T10:46:17.998Z,99.90
2022-07-26T10:48:45.246Z,99.90
2022-07-26T10:51:13.380Z,99.90
2022-07-26T10:53:40.226Z,99.90
2022-07-26T10:56:07.025Z,99.70
2022-07-26T10:58:34.035Z,99.40
2022-07-26T11:01:01.162Z,99.00
2022-07-26T11:03:28.458Z,97.70
2022-07-26T11:05:59.294Z,97.70
2022-07-26T11:08:26.852Z,97.80
2022-07-26T11:10:57.666Z,97.50
2022-07-26T11:13:25.887Z,97.90
2022-07-26T11:15:54.460Z,98.10
2022-07-26T11:18:22.481Z,98.70
2022-07-26T11:20:50.051Z,97.60
2022-07-26T11:23:17.376Z,96.00
2022-07-26T11:25:45.237Z,95.90
2022-07-26T11:28:12.818Z,95.40
2022-07-26T11:30:40.256Z,95.80
2022-07-26T11:33:09.695Z,94.90
2022-07-26T11:36:27.959Z,95.60
2022-07-26T11:39:03.081Z,95.00
2022-07-26T11:41:34.988Z,94.60
2022-07-26T11:44:02.629Z,94.50
2022-07-26T11:46:32.639Z,95.60
2022-07-26T11:49:00.225Z,96.90
2022-07-26T11:51:27.938Z,98.30
2022-07-26T11:54:03.022Z,99.30
2022-07-26T11:56:39.772Z,99.90
2022-07-26T11:59:06.603Z,99.90
2022-07-26T12:01:33.356Z,99.90
2022-07-26T12:04:00.357Z,99.90
2022-07-26T12:06:27.492Z,99.90
2022-07-26T12:08:56.302Z,99.90
2022-07-26T12:11:23.182Z,99.90
2022-07-26T12:13:55.274Z,99.90
2022-07-26T12:16:22.771Z,99.90
2022-07-26T12:18:49.553Z,99.90
2022-07-26T12:21:16.418Z,99.90
2022-07-26T12:23:43.492Z,99.90
2022-07-26T12:26:10.269Z,99.90
2022-07-26T12:28:37.339Z,99.90
2022-07-26T12:31:04.214Z,99.90
2022-07-26T12:33:31.037Z,99.90
2022-07-26T12:36:01.770Z,99.90
2022-07-26T12:38:28.573Z,99.90
2022-07-26T12:40:55.425Z,99.90
2022-07-26T12:43:22.284Z,99.90
2022-07-26T12:45:49.155Z,99.90
2022-07-26T12:48:15.977Z,99.90
2022-07-26T12:50:42.902Z,99.90
2022-07-26T12:53:12.588Z,99.90
2022-07-26T12:55:39.749Z,99.90
2022-07-26T12:58:06.618Z,99.90
2022-07-26T13:00:33.399Z,99.90
2022-07-26T13:03:01.831Z,99.90
2022-07-26T13:05:36.853Z,99.90
2022-07-26T13:08:14.998Z,99.90
2022-07-26T13:10:42.063Z,99.90
2022-07-26T13:13:08.839Z,99.90
2022-07-26T13:15:37.531Z,99.90
2022-07-26T13:18:04.640Z,99.90
2022-07-26T13:20:31.480Z,99.90
2022-07-26T13:22:58.387Z,99.90
2022-07-26T13:25:25.675Z,99.90
2022-07-26T13:27:56.870Z,99.90
2022-07-26T13:30:23.801Z,99.90
2022-07-26T13:32:50.743Z,99.90
2022-07-26T13:35:17.537Z,99.90
2022-07-26T13:37:44.352Z,99.90
2022-07-26T13:40:11.428Z,99.90
2022-07-26T13:42:38.361Z,99.90
2022-07-26T13:45:05.117Z,99.90
2022-07-26T13:47:31.931Z,99.90
2022-07-26T13:49:58.686Z,99.90
2022-07-26T13:52:25.527Z,99.90
2022-07-26T13:54:52.564Z,99.90
2022-07-26T13:57:19.347Z,99.90
2022-07-26T13:59:46.109Z,99.90
2022-07-26T14:02:13.220Z,99.90
2022-07-26T14:04:40.097Z,99.90
2022-07-26T14:07:06.870Z,99.90
2022-07-26T14:09:33.675Z,99.90
2022-07-26T14:12:00.454Z,99.90
2022-07-26T14:14:29.707Z,99.90
2022-07-26T14:16:56.869Z,99.90
2022-07-26T14:19:23.858Z,99.90
2022-07-26T14:21:59.628Z,99.90
2022-07-26T14:24:27.314Z,99.90
2022-07-26T14:26:58.615Z,99.90
2022-07-26T14:29:25.980Z,99.90
2022-07-26T14:31:52.994Z,99.90
2022-07-26T14:34:19.865Z,99.80
2022-07-26T14:36:46.833Z,99.40
2022-07-26T14:39:13.654Z,98.70
2022-07-26T14:41:40.629Z,98.40
2022-07-26T14:44:07.595Z,98.80
2022-07-26T14:46:34.709Z,99.30
2022-07-26T14:49:01.493Z,98.80
2022-07-26T14:51:28.405Z,98.30
2022-07-26T14:53:55.437Z,98.40
2022-07-26T14:56:22.222Z,97.20
2022-07-26T14:58:49.007Z,97.70
2022-07-26T15:01:16.005Z,98.20
2022-07-26T15:03:42.836Z,98.50
2022-07-26T15:06:09.715Z,96.60
2022-07-26T15:08:36.518Z,97.40
2022-07-26T15:11:05.562Z,97.00
2022-07-26T15:13:32.376Z,97.30
2022-07-26T15:15:59.263Z,96.70
2022-07-26T15:18:26.234Z,96.10
2022-07-26T15:20:52.981Z,96.00
2022-07-26T15:23:19.863Z,96.70
2022-07-26T15:25:49.058Z,97.30
2022-07-26T15:28:16.169Z,98.00
2022-07-26T15:30:44.153Z,97.70
2022-07-26T15:33:10.894Z,98.80
2022-07-26T15:35:38.991Z,98.80
2022-07-26T15:38:05.902Z,98.90
2022-07-26T15:40:32.689Z,99.40
2022-07-26T15:42:59.623Z,99.70
2022-07-26T15:45:27.207Z,99.90
2022-07-26T15:48:09.424Z,99.90
2022-07-26T15:50:41.686Z,99.90
2022-07-26T15:53:08.461Z,99.90
2022-07-26T15:55:35.205Z,99.90
2022-07-26T15:58:06.174Z,99.60
2022-07-26T16:00:32.939Z,99.90
2022-07-26T16:02:59.851Z,99.60
2022-07-26T16:05:26.785Z,99.90
2022-07-26T16:07:54.655Z,99.90
2022-07-26T16:10:21.544Z,99.90
2022-07-26T16:12:48.521Z,99.90
2022-07-26T16:15:16.399Z,99.90
2022-07-26T16:17:43.390Z,99.90
2022-07-26T16:20:10.354Z,99.90
2022-07-26T16:22:41.155Z,99.80
2022-07-26T16:25:08.170Z,99.90
2022-07-26T16:27:34.992Z,99.80
2022-07-26T16:30:01.974Z,99.60
2022-07-26T16:32:28.869Z,99.70
2022-07-26T16:34:55.747Z,99.90
2022-07-26T16:37:23.683Z,99.90
2022-07-26T16:39:50.598Z,99.90
2022-07-26T16:42:17.723Z,99.90
2022-07-26T16:44:44.553Z,99.90
2022-07-26T16:47:11.446Z,99.90
2022-07-26T16:49:38.283Z,99.90
2022-07-26T16:52:05.130Z,99.90
2022-07-26T16:54:33.001Z,99.90
2022-07-26T16:56:59.842Z,99.90
2022-07-26T16:59:26.661Z,99.90
2022-07-26T17:01:53.462Z,99.90
2022-07-26T17:04:20.390Z,99.90
2022-07-26T17:07:07.679Z,99.90
2022-07-26T17:09:34.336Z,99.90
2022-07-26T17:12:06.227Z,99.90
2022-07-26T17:14:33.492Z,99.90
2022-07-26T17:17:00.455Z,99.90
2022-07-26T17:19:27.840Z,99.90
2022-07-26T17:21:54.613Z,99.90
2022-07-26T17:24:21.625Z,99.90
2022-07-26T17:26:48.660Z,99.90
2022-07-26T17:29:15.603Z,99.80
2022-07-26T17:31:43.255Z,99.50
2022-07-26T17:34:10.210Z,99.60
2022-07-26T17:36:37.289Z,99.90
2022-07-26T17:39:04.273Z,99.90
2022-07-26T17:41:33.530Z,99.90
2022-07-26T17:44:02.977Z,99.90
2022-07-26T17:46:32.989Z,99.90
2022-07-26T17:48:59.964Z,99.90
2022-07-26T17:51:26.960Z,99.90
2022-07-26T17:53:54.081Z,99.90
2022-07-26T17:56:20.931Z,99.90
2022-07-26T17:58:47.704Z,99.90
2022-07-26T18:01:14.654Z,99.90
2022-07-26T18:03:41.494Z,99.90
2022-07-26T18:06:08.524Z,99.90
2022-07-26T18:08:35.566Z,99.90
2022-07-26T18:11:03.154Z,99.90
2022-07-26T18:13:30.041Z,99.90
2022-07-26T18:15:57.092Z,99.90
2022-07-26T18:18:24.087Z,99.90
2022-07-26T18:20:50.942Z,99.90
2022-07-26T18:23:17.992Z,99.90
2022-07-26T18:25:44.766Z,99.90
2022-07-26T18:28:11.773Z,99.90
2022-07-26T18:30:38.871Z,99.90
2022-07-26T18:33:05.768Z,99.90
2022-07-26T18:35:32.694Z,99.90
2022-07-26T18:37:59.704Z,99.90
2022-07-26T18:40:26.655Z,99.90
2022-07-26T18:42:53.516Z,99.90
2022-07-26T18:45:20.556Z,99.90
2022-07-26T18:47:47.388Z,99.90
2022-07-26T18:50:15.319Z,99.90
2022-07-26T18:52:44.155Z,99.90
2022-07-26T18:55:12.463Z,99.90
2022-07-26T18:57:39.322Z,99.90
2022-07-26T19:00:06.518Z,99.90
2022-07-26T19:02:33.383Z,99.90
2022-07-26T19:05:00.202Z,99.90
2022-07-26T19:07:27.093Z,99.90
2022-07-26T19:09:58.422Z,99.90
2022-07-26T19:12:25.547Z,99.90
2022-07-26T19:14:52.514Z,99.90
2022-07-26T19:17:19.852Z,99.90
2022-07-26T19:19:46.691Z,99.90
2022-07-26T19:22:13.560Z,99.90
2022-07-26T19:24:40.453Z,99.90
2022-07-26T19:27:08.504Z,99.90
2022-07-26T19:29:35.438Z,99.90
2022-07-26T19:32:02.397Z,99.90
2022-07-26T19:34:29.303Z,99.90
2022-07-26T19:36:56.347Z,99.90
2022-07-26T19:39:23.457Z,99.90
2022-07-26T19:41:50.252Z,99.90
2022-07-26T19:44:17.353Z,99.90
2022-07-26T19:46:44.205Z,99.90
2022-07-26T19:49:12.963Z,99.90
2022-07-26T19:51:40.087Z,99.90
2022-07-26T19:54:06.895Z,99.90
2022-07-26T19:56:33.969Z,99.90
2022-07-26T19:59:00.875Z,99.90
2022-07-26T20:01:27.795Z,99.90
2022-07-26T20:03:54.957Z,99.90
2022-07-26T20:06:22.134Z,99.90
2022-07-26T20:08:49.894Z,99.90
2022-07-26T20:11:17.943Z,99.90
2022-07-26T20:13:46.646Z,99.90
2022-07-26T20:16:13.416Z,99.90
2022-07-26T20:18:40.211Z,99.90
2022-07-26T20:21:07.100Z,99.90
2022-07-26T20:23:34.223Z,99.90
2022-07-26T20:26:01.033Z,99.90
2022-07-26T20:28:27.930Z,99.90
2022-07-26T20:30:55.204Z,99.90
2022-07-26T20:33:22.353Z,99.90
2022-07-26T20:35:54.495Z,99.90
2022-07-26T20:38:21.786Z,99.90
2022-07-26T20:40:48.716Z,99.90
2022-07-26T20:43:15.532Z,99.90
2022-07-26T20:45:42.377Z,99.90
2022-07-26T20:48:09.292Z,99.90
2022-07-26T20:50:36.708Z,99.90
2022-07-26T20:53:03.578Z,99.90
2022-07-26T20:55:30.665Z,99.90
2022-07-26T20:57:57.466Z,99.90
2022-07-26T21:00:26.046Z,99.90
2022-07-26T21:02:57.719Z,99.90
2022-07-26T21:05:24.593Z,99.90
2022-07-26T21:07:55.135Z,99.90
2022-07-26T21:10:26.254Z,99.90
2022-07-26T21:12:53.218Z,99.90
2022-07-26T21:15:20.057Z,99.90
2022-07-26T21:17:46.843Z,99.90
2022-07-26T21:20:13.749Z,99.90
2022-07-26T21:22:40.543Z,99.90
2022-07-26T21:25:07.456Z,99.90
2022-07-26T21:27:34.258Z,99.90
2022-07-26T21:30:01.055Z,99.90
2022-07-26T21:32:31.505Z,99.90
2022-07-26T21:34:58.884Z,99.90
2022-07-26T21:37:25.864Z,99.90
2022-07-26T21:39:52.775Z,99.90
2022-07-26T21:42:19.642Z,99.90
2022-07-26T21:44:46.499Z,99.90
2022-07-26T21:47:13.341Z,99.90
2022-07-26T21:49:40.126Z,99.90
2022-07-26T21:52:06.877Z,99.90
2022-07-26T21:54:34.071Z,99.90
2022-07-26T21:57:00.836Z,99.90
2022-07-26T21:59:27.832Z,99.90
2022-07-26T22:01:54.866Z,99.90
2022-07-26T22:04:22.482Z,99.90
2022-07-26T22:06:49.291Z,99.90
2022-07-26T22:09:16.140Z,99.90
2022-07-26T22:11:43.007Z,99.90
2022-07-26T22:14:09.801Z,99.90
2022-07-26T22:16:36.754Z,99.90
2022-07-26T22:19:03.609Z,99.90
2022-07-26T22:21:30.408Z,99.90
2022-07-26T22:23:57.493Z,99.90
2022-07-26T22:26:27.646Z,99.90
2022-07-26T22:28:54.440Z,99.90
2022-07-26T22:31:21.437Z,99.90
2022-07-26T22:33:48.277Z,99.90
2022-07-26T22:36:15.147Z,99.90
2022-07-26T22:38:42.023Z,99.90
2022-07-26T22:41:08.841Z,99.90
2022-07-26T22:43:35.690Z,99.90
2022-07-26T22:46:02.663Z,99.90
2022-07-26T22:48:29.683Z,99.90
2022-07-26T22:50:56.617Z,99.90
2022-07-26T22:53:23.531Z,99.90
2022-07-26T22:55:51.057Z,99.90
2022-07-26T22:58:17.871Z,99.90
2022-07-26T23:00:44.997Z,99.90
2022-07-26T23:03:20.032Z,99.90
2022-07-26T23:05:47.688Z,99.90
2022-07-26T23:08:44.288Z,99.90
2022-07-26T23:11:01.590Z,99.90
2022-07-26T23:13:28.427Z,99.90
2022-07-26T23:16:00.286Z,99.90
2022-07-26T23:18:27.881Z,99.90
2022-07-26T23:20:54.804Z,99.90
2022-07-26T23:23:21.632Z,99.90
2022-07-26T23:25:51.008Z,99.90
2022-07-26T23:28:36.126Z,99.90
2022-07-26T23:31:05.164Z,99.90
2022-07-26T23:33:52.441Z,99.90
2022-07-26T23:36:18.899Z,99.90
2022-07-26T23:38:45.704Z,99.90
2022-07-26T23:41:12.490Z,99.90
2022-07-26T23:43:39.383Z,99.90
2022-07-26T23:46:06.167Z,99.90
2022-07-26T23:48:33.003Z,99.90
2022-07-26T23:50:59.843Z,99.90
2022-07-26T23:53:27.255Z,99.90
2022-07-26T23:55:54.347Z,99.90
2022-07-26T23:58:21.218Z,99.90
